Maimara, Argentina
Current Conditions -  °F | °C
As of 2:00 PM on Sunday 21 Dec 2014 (Local Time) from SASJ Reporting Station
Broken Clouds Broken Clouds  
Wind Chill: 72°   Ceiling: 10000
Heat Index: 72°   Visibility: 6mi
Dew Point: 55°   Wind: 5mph
Humidity: 57%   Direction: 180°S
Pressure: 29.83"   Gusts: NA
Location:  23.62°S, 65.4°W
Report Text: SASJ 211700Z 18004KT 9999 SCT030 BKN10022/13 Q1010
Loading
Personal Weather Stations






























Interactive Weather Map New forecast layout! Learn more

10-Day Weather Forecast

Advertisements
Track Severe Weather on mobile